createdAt,value
2023-03-27T00:00:30.506Z,11.82
2023-03-27T00:01:57.375Z,13.48
2023-03-27T00:03:21.039Z,13.35
2023-03-27T00:04:44.799Z,11.63
2023-03-27T00:06:12.070Z,12.73
2023-03-27T00:07:36.427Z,11.93
2023-03-27T00:08:57.547Z,14.77
2023-03-27T00:10:26.622Z,16.02
2023-03-27T00:11:51.752Z,11.35
2023-03-27T00:13:14.673Z,12.13
2023-03-27T00:14:38.936Z,11.30
2023-03-27T00:16:05.407Z,9.45
2023-03-27T00:17:26.842Z,10.27
2023-03-27T00:18:49.408Z,10.60
2023-03-27T00:20:13.826Z,8.95
2023-03-27T00:21:36.275Z,9.10
2023-03-27T00:22:58.783Z,11.18
2023-03-27T00:24:21.339Z,15.15
2023-03-27T00:25:42.620Z,9.60
2023-03-27T00:27:05.163Z,10.57
2023-03-27T00:28:28.832Z,9.77
2023-03-27T00:29:54.099Z,12.27
2023-03-27T00:31:17.336Z,11.00
2023-03-27T00:32:40.494Z,10.80
2023-03-27T00:34:06.146Z,12.07
2023-03-27T00:35:35.977Z,10.35
2023-03-27T00:37:00.721Z,12.05
2023-03-27T00:38:24.920Z,11.75
2023-03-27T00:39:50.618Z,13.88
2023-03-27T00:41:13.123Z,10.10
2023-03-27T00:42:35.216Z,13.15
2023-03-27T00:43:59.129Z,10.18
2023-03-27T00:45:23.141Z,11.15
2023-03-27T00:46:47.083Z,11.82
2023-03-27T00:48:22.311Z,17.25
2023-03-27T00:50:00.845Z,13.13
2023-03-27T00:52:02.726Z,10.35
2023-03-27T00:53:29.481Z,12.30
2023-03-27T00:54:51.127Z,14.15
2023-03-27T00:56:15.876Z,15.88
2023-03-27T00:57:54.538Z,12.65
2023-03-27T00:59:20.808Z,12.77
2023-03-27T01:00:41.817Z,10.70
2023-03-27T01:02:06.293Z,15.70
2023-03-27T01:03:33.937Z,14.25
2023-03-27T01:04:57.867Z,15.65
2023-03-27T01:06:21.614Z,10.75
2023-03-27T01:08:00.647Z,12.73
2023-03-27T01:09:27.290Z,12.68
2023-03-27T01:11:00.584Z,11.40
2023-03-27T01:12:35.040Z,13.23
2023-03-27T01:14:10.683Z,13.70
2023-03-27T01:15:38.044Z,11.55
2023-03-27T01:17:18.619Z,15.13
2023-03-27T01:18:54.124Z,12.55
2023-03-27T01:20:52.244Z,11.70
2023-03-27T01:22:39.611Z,12.63
2023-03-27T01:24:42.768Z,12.07
2023-03-27T01:28:32.208Z,12.18
2023-03-27T01:30:15.686Z,14.60
2023-03-27T01:31:56.722Z,13.03
2023-03-27T01:34:12.552Z,11.95
2023-03-27T01:36:16.769Z,11.57
2023-03-27T01:37:54.415Z,12.82
2023-03-27T01:39:49.069Z,12.85
2023-03-27T01:41:16.757Z,15.80
2023-03-27T01:42:48.501Z,15.63
2023-03-27T01:44:18.578Z,11.38
2023-03-27T01:45:46.466Z,13.98
2023-03-27T01:47:15.724Z,11.45
2023-03-27T01:48:46.206Z,15.55
2023-03-27T01:50:14.757Z,12.50
2023-03-27T01:51:40.186Z,11.45
2023-03-27T01:53:08.873Z,10.63
2023-03-27T01:54:35.895Z,11.93
2023-03-27T01:56:08.564Z,11.05
2023-03-27T01:57:38.483Z,14.48
2023-03-27T01:59:16.587Z,11.50
2023-03-27T02:00:52.501Z,13.27
2023-03-27T02:02:22.291Z,11.00
2023-03-27T02:03:48.015Z,13.48
2023-03-27T02:05:15.525Z,9.02
2023-03-27T02:06:42.691Z,11.68
2023-03-27T02:08:10.017Z,13.35
2023-03-27T02:09:35.926Z,11.80
2023-03-27T02:11:01.636Z,10.98
2023-03-27T02:12:30.332Z,11.90
2023-03-27T02:13:55.148Z,11.30
2023-03-27T02:15:23.769Z,14.05
2023-03-27T02:16:54.451Z,11.55
2023-03-27T02:18:22.184Z,16.90
2023-03-27T02:19:47.797Z,17.73
2023-03-27T02:21:14.309Z,13.75
2023-03-27T02:22:40.253Z,18.30
2023-03-27T02:24:08.192Z,18.50
2023-03-27T02:25:39.072Z,21.13
2023-03-27T02:27:15.811Z,21.80
2023-03-27T02:28:53.313Z,31.13
2023-03-27T02:30:19.439Z,23.67
2023-03-27T02:32:09.473Z,27.50
2023-03-27T02:33:46.030Z,33.50
2023-03-27T02:35:38.384Z,32.67
2023-03-27T02:37:05.299Z,35.25
2023-03-27T02:39:09.401Z,33.80
2023-03-27T02:40:41.745Z,39.13
2023-03-27T02:42:40.538Z,33.72
2023-03-27T02:44:11.698Z,33.00
2023-03-27T02:45:56.780Z,34.65
2023-03-27T02:47:27.074Z,34.20
2023-03-27T02:48:52.494Z,34.35
2023-03-27T02:50:23.693Z,36.97
2023-03-27T02:51:52.014Z,32.47
2023-03-27T02:53:20.332Z,35.30
2023-03-27T02:54:46.944Z,32.38
2023-03-27T02:56:12.194Z,37.13
2023-03-27T02:57:40.377Z,36.70
2023-03-27T02:59:35.626Z,30.13
2023-03-27T03:01:00.836Z,31.33
2023-03-27T03:02:35.202Z,33.53
2023-03-27T03:04:00.844Z,34.53
2023-03-27T03:05:48.372Z,34.78
2023-03-27T03:07:10.252Z,34.80
2023-03-27T03:08:38.444Z,36.13
2023-03-27T03:10:01.940Z,38.47
2023-03-27T03:15:56.070Z,33.10
2023-03-27T03:23:14.650Z,32.03
2023-03-27T03:29:55.612Z,28.95
2023-03-27T03:40:34.270Z,21.50
2023-03-27T03:42:52.229Z,25.65
2023-03-27T03:57:11.268Z,16.15
2023-03-27T03:58:34.562Z,21.23
2023-03-27T04:00:01.365Z,15.63
2023-03-27T04:01:41.197Z,26.17
2023-03-27T04:03:04.879Z,16.85
2023-03-27T04:04:33.453Z,18.17
2023-03-27T04:06:05.837Z,19.10
2023-03-27T04:07:31.629Z,16.20
2023-03-27T04:09:13.035Z,18.33
2023-03-27T04:10:56.128Z,16.40
2023-03-27T04:12:40.939Z,55.70
2023-03-27T04:14:11.145Z,20.77
2023-03-27T04:15:38.446Z,31.33
2023-03-27T04:17:14.418Z,23.67
2023-03-27T04:18:41.491Z,15.02
2023-03-27T04:20:14.237Z,12.50
2023-03-27T04:21:39.960Z,8.02
2023-03-27T04:23:02.817Z,11.25
2023-03-27T04:24:36.165Z,9.88
2023-03-27T04:26:19.852Z,11.70
2023-03-27T04:28:23.879Z,10.15
2023-03-27T04:29:59.037Z,10.57
2023-03-27T04:31:28.070Z,6.90
2023-03-27T04:33:30.673Z,10.05
2023-03-27T04:35:20.268Z,8.25
2023-03-27T04:36:54.329Z,9.55
2023-03-27T04:38:26.460Z,11.98
2023-03-27T04:39:51.434Z,14.52
2023-03-27T04:41:15.643Z,12.45
2023-03-27T04:42:45.277Z,15.38
2023-03-27T04:44:14.207Z,10.95
2023-03-27T04:47:02.625Z,14.95
2023-03-27T04:48:25.296Z,16.83
2023-03-27T04:49:52.383Z,18.00
2023-03-27T04:51:17.550Z,18.98
2023-03-27T04:52:40.223Z,15.93
2023-03-27T04:54:06.225Z,13.48
2023-03-27T04:55:38.181Z,14.15
2023-03-27T04:57:04.031Z,16.92
2023-03-27T04:58:28.555Z,16.15
2023-03-27T04:59:53.918Z,14.30
2023-03-27T05:01:36.089Z,17.80
2023-03-27T05:03:03.984Z,15.13
2023-03-27T05:04:39.445Z,18.60
2023-03-27T05:06:12.252Z,20.85
2023-03-27T05:07:36.355Z,17.35
2023-03-27T05:09:01.194Z,13.48
2023-03-27T05:10:27.797Z,12.35
2023-03-27T05:11:52.681Z,10.88
2023-03-27T05:13:15.648Z,12.57
2023-03-27T05:14:37.083Z,22.80
2023-03-27T05:16:10.340Z,18.30
2023-03-27T05:17:41.004Z,17.55
2023-03-27T05:19:05.023Z,19.50
2023-03-27T05:20:35.448Z,12.70
2023-03-27T05:22:03.522Z,15.15
2023-03-27T05:23:26.205Z,17.23
2023-03-27T05:24:47.937Z,12.43
2023-03-27T05:26:10.517Z,16.55
2023-03-27T05:27:50.807Z,20.23
2023-03-27T05:29:14.202Z,13.52
2023-03-27T05:30:39.867Z,12.00
2023-03-27T05:32:15.858Z,12.93
2023-03-27T05:33:45.075Z,12.32
2023-03-27T05:35:09.080Z,16.17
2023-03-27T05:36:37.162Z,6.70
2023-03-27T05:38:02.409Z,11.45
2023-03-27T05:39:29.006Z,13.63
2023-03-27T05:40:52.452Z,10.32
2023-03-27T05:42:15.812Z,12.40
2023-03-27T05:43:40.975Z,10.63
2023-03-27T05:45:03.305Z,7.28
2023-03-27T05:46:24.978Z,5.80
2023-03-27T05:47:58.096Z,8.55
2023-03-27T05:49:21.824Z,6.13
2023-03-27T05:50:49.985Z,10.18
2023-03-27T05:52:16.254Z,6.65
2023-03-27T05:53:39.612Z,9.40
2023-03-27T05:55:15.568Z,8.18
2023-03-27T05:56:42.730Z,8.32
2023-03-27T05:58:06.296Z,10.45
2023-03-27T05:59:28.941Z,7.65
2023-03-27T06:01:04.923Z,5.70
2023-03-27T06:02:27.915Z,6.68
2023-03-27T06:03:58.235Z,7.50
2023-03-27T06:05:24.710Z,13.27
2023-03-27T06:06:47.296Z,6.03
2023-03-27T06:08:11.835Z,9.95
2023-03-27T06:09:35.453Z,6.95
2023-03-27T06:11:16.806Z,7.43
2023-03-27T06:12:41.921Z,6.07
2023-03-27T06:14:18.614Z,6.43
2023-03-27T06:16:08.678Z,5.78
2023-03-27T06:17:41.014Z,6.50
2023-03-27T06:19:05.168Z,6.78
2023-03-27T06:20:27.661Z,6.80
2023-03-27T06:21:50.518Z,7.07
2023-03-27T06:23:13.151Z,8.10
2023-03-27T06:24:41.071Z,7.40
2023-03-27T06:26:05.994Z,9.30
2023-03-27T06:27:28.483Z,6.15
2023-03-27T06:28:51.390Z,8.70
2023-03-27T06:30:18.253Z,7.53
2023-03-27T06:31:58.042Z,8.73
2023-03-27T06:33:35.393Z,7.40
2023-03-27T06:35:04.061Z,7.45
2023-03-27T06:36:47.141Z,8.07
2023-03-27T06:38:09.791Z,8.73
2023-03-27T06:39:33.728Z,7.82
2023-03-27T06:40:56.854Z,7.07
2023-03-27T06:42:20.146Z,6.72
2023-03-27T06:43:59.804Z,6.93
2023-03-27T06:45:53.893Z,7.28
2023-03-27T06:47:27.027Z,8.98
2023-03-27T06:49:11.863Z,7.63
2023-03-27T06:50:43.518Z,11.63
2023-03-27T06:52:27.745Z,13.75
2023-03-27T06:54:00.296Z,16.50
2023-03-27T06:55:25.416Z,12.52
2023-03-27T06:56:49.629Z,15.50
2023-03-27T06:58:22.358Z,15.35
2023-03-27T06:59:44.734Z,11.45
2023-03-27T07:03:01.323Z,10.77
2023-03-27T07:05:04.173Z,10.27
2023-03-27T07:06:39.573Z,12.68
2023-03-27T07:08:19.011Z,11.30
2023-03-27T07:09:47.161Z,11.68
2023-03-27T07:11:12.747Z,10.70
2023-03-27T07:12:48.436Z,11.13
2023-03-27T07:14:12.504Z,8.75
2023-03-27T07:15:39.667Z,13.68
2023-03-27T07:17:02.997Z,11.13
2023-03-27T07:19:08.613Z,9.52
2023-03-27T07:20:35.966Z,9.98
2023-03-27T07:22:12.939Z,16.15
2023-03-27T07:23:38.552Z,9.32
2023-03-27T07:25:06.756Z,10.95
2023-03-27T07:26:39.055Z,11.38
2023-03-27T07:28:31.202Z,10.27
2023-03-27T07:30:03.650Z,10.35
2023-03-27T07:31:51.676Z,8.90
2023-03-27T07:33:30.101Z,7.35
2023-03-27T07:35:00.187Z,8.13
2023-03-27T07:36:46.557Z,11.85
2023-03-27T07:38:10.697Z,9.00
2023-03-27T07:39:53.421Z,7.97
2023-03-27T07:41:19.927Z,9.18
2023-03-27T07:42:53.377Z,10.20
2023-03-27T07:44:16.012Z,9.65
2023-03-27T07:45:49.865Z,7.85
2023-03-27T07:47:12.476Z,6.22
2023-03-27T07:48:37.831Z,6.53
2023-03-27T07:50:00.361Z,7.18
2023-03-27T07:51:29.253Z,7.13
2023-03-27T07:52:58.573Z,9.52
2023-03-27T07:54:22.409Z,5.80
2023-03-27T07:55:48.829Z,5.78
2023-03-27T07:57:11.647Z,5.95
2023-03-27T07:58:49.016Z,4.25
2023-03-27T08:00:17.974Z,8.13
2023-03-27T08:01:50.857Z,7.75
2023-03-27T08:03:15.974Z,8.80
2023-03-27T08:04:45.618Z,14.32
2023-03-27T08:06:10.550Z,5.00
2023-03-27T08:07:42.871Z,6.80
2023-03-27T08:09:08.810Z,4.15
2023-03-27T08:10:39.427Z,5.90
2023-03-27T08:12:08.005Z,4.25
2023-03-27T08:13:36.780Z,4.70
2023-03-27T08:15:03.727Z,4.00
2023-03-27T08:16:32.131Z,4.70
2023-03-27T08:17:57.290Z,5.35
2023-03-27T08:19:25.431Z,6.45
2023-03-27T08:20:57.319Z,5.07
2023-03-27T08:22:21.223Z,4.82
2023-03-27T08:24:07.655Z,3.15
2023-03-27T08:25:30.062Z,7.03
2023-03-27T08:26:55.331Z,5.60
2023-03-27T08:28:18.462Z,4.13
2023-03-27T08:29:42.372Z,11.20
2023-03-27T08:31:11.529Z,4.57
2023-03-27T08:32:34.000Z,4.53
2023-03-27T08:34:00.723Z,6.30
2023-03-27T08:35:29.275Z,6.78
2023-03-27T08:38:26.082Z,4.53
2023-03-27T08:40:14.082Z,2.80
2023-03-27T08:41:41.832Z,3.58
2023-03-27T08:43:16.216Z,5.00
2023-03-27T08:44:38.941Z,5.35
2023-03-27T08:46:37.931Z,4.05
2023-03-27T08:51:03.869Z,4.80
2023-03-27T08:52:32.394Z,3.40
2023-03-27T08:54:08.443Z,3.20
2023-03-27T08:55:40.436Z,5.00
2023-03-27T08:57:22.089Z,6.07
2023-03-27T08:58:48.673Z,4.20
2023-03-27T09:00:25.248Z,5.38
2023-03-27T09:02:09.634Z,4.80
2023-03-27T09:03:37.240Z,6.35
2023-03-27T09:05:04.075Z,3.40
2023-03-27T09:06:29.055Z,5.38
2023-03-27T09:08:05.320Z,7.53
2023-03-27T09:09:46.503Z,4.75
2023-03-27T09:11:22.382Z,4.38
2023-03-27T09:13:05.167Z,6.45
2023-03-27T09:14:37.315Z,7.82
2023-03-27T09:16:03.504Z,6.78
2023-03-27T09:17:32.013Z,4.55
2023-03-27T09:19:07.953Z,4.95
2023-03-27T09:20:34.948Z,3.95
2023-03-27T09:22:01.300Z,4.95
2023-03-27T09:23:44.808Z,6.78
2023-03-27T09:25:40.417Z,6.47
2023-03-27T09:27:18.895Z,5.78
2023-03-27T09:28:56.732Z,4.82
2023-03-27T09:30:31.405Z,9.73
2023-03-27T09:32:14.833Z,7.07
2023-03-27T09:33:41.525Z,6.53
2023-03-27T09:35:05.034Z,4.82
2023-03-27T09:36:27.435Z,12.35
2023-03-27T09:37:58.652Z,7.70
2023-03-27T09:39:27.639Z,7.25
2023-03-27T09:41:07.023Z,3.95
2023-03-27T09:42:37.959Z,5.38
2023-03-27T09:44:06.317Z,8.13
2023-03-27T09:45:35.181Z,5.78
2023-03-27T09:47:06.335Z,4.20
2023-03-27T09:48:37.081Z,4.63
2023-03-27T09:50:26.245Z,6.90
2023-03-27T09:52:04.013Z,4.90
2023-03-27T09:54:00.209Z,5.95
2023-03-27T09:55:27.505Z,4.13
2023-03-27T09:56:53.369Z,4.28
2023-03-27T09:58:26.072Z,5.30
2023-03-27T09:59:58.653Z,4.68
2023-03-27T10:01:38.138Z,5.80
2023-03-27T10:03:24.389Z,4.63
2023-03-27T10:05:05.639Z,4.13
2023-03-27T10:06:33.338Z,4.38
2023-03-27T10:08:31.370Z,7.47
2023-03-27T10:13:03.630Z,13.38
2023-03-27T10:14:36.762Z,9.00
2023-03-27T10:16:01.602Z,7.65
2023-03-27T10:17:39.406Z,6.22
2023-03-27T10:19:06.753Z,5.63
2023-03-27T10:20:41.725Z,4.57
2023-03-27T10:22:20.159Z,2.80
2023-03-27T10:23:46.472Z,5.68
2023-03-27T10:25:20.657Z,3.92
2023-03-27T10:26:52.453Z,6.07
2023-03-27T10:28:20.043Z,5.05
2023-03-27T10:30:28.987Z,3.13
2023-03-27T10:32:05.972Z,5.05
2023-03-27T10:33:56.852Z,4.95
2023-03-27T10:35:45.385Z,7.28
2023-03-27T10:37:28.176Z,3.50
2023-03-27T10:39:15.254Z,5.53
2023-03-27T10:40:52.249Z,6.95
2023-03-27T10:42:28.834Z,3.28
2023-03-27T10:43:50.957Z,3.17
2023-03-27T10:45:18.363Z,3.40
2023-03-27T10:46:42.252Z,5.93
2023-03-27T10:48:11.335Z,3.35
2023-03-27T10:49:45.056Z,4.55
2023-03-27T10:51:36.155Z,4.05
2023-03-27T10:53:18.625Z,6.22
2023-03-27T10:55:06.940Z,5.55
2023-03-27T10:56:37.302Z,4.65
2023-03-27T10:58:06.834Z,3.85
2023-03-27T10:59:41.785Z,10.00
2023-03-27T11:01:19.418Z,7.78
2023-03-27T11:04:20.855Z,6.03
2023-03-27T11:05:53.822Z,7.10
2023-03-27T11:07:41.609Z,5.50
2023-03-27T11:09:10.598Z,4.97
2023-03-27T11:10:44.483Z,6.35
2023-03-27T11:12:14.594Z,7.40
2023-03-27T11:13:50.519Z,8.88
2023-03-27T11:15:17.647Z,6.05
2023-03-27T11:16:44.597Z,5.50
2023-03-27T11:18:29.898Z,5.57
2023-03-27T11:20:07.526Z,6.30
2023-03-27T11:22:15.337Z,8.70
2023-03-27T11:23:47.400Z,4.82
2023-03-27T11:25:29.391Z,4.85
2023-03-27T11:27:01.499Z,3.15
2023-03-27T11:28:32.769Z,4.47
2023-03-27T11:30:08.695Z,6.18
2023-03-27T11:31:48.722Z,4.40
2023-03-27T11:33:54.707Z,5.68
2023-03-27T11:35:27.950Z,6.57
2023-03-27T11:37:36.519Z,5.70
2023-03-27T11:39:08.417Z,5.50
2023-03-27T11:40:56.755Z,11.25
2023-03-27T11:42:25.032Z,3.35
2023-03-27T11:43:48.246Z,2.67
2023-03-27T11:45:46.955Z,4.32
2023-03-27T11:47:20.612Z,6.35
2023-03-27T11:49:00.035Z,4.63
2023-03-27T11:50:37.564Z,2.55
2023-03-27T11:52:20.099Z,7.95
2023-03-27T11:54:22.299Z,2.75
2023-03-27T11:56:49.174Z,6.28
2023-03-27T11:58:30.879Z,3.13
2023-03-27T12:00:12.301Z,4.32
2023-03-27T12:01:52.538Z,3.40
2023-03-27T12:03:53.875Z,4.55
2023-03-27T12:05:41.260Z,2.53
2023-03-27T12:07:36.212Z,8.75
2023-03-27T12:09:29.391Z,3.35
2023-03-27T12:11:20.930Z,6.10
2023-03-27T12:13:13.446Z,3.92
2023-03-27T12:15:09.554Z,3.60
2023-03-27T12:17:14.468Z,4.15
2023-03-27T12:19:10.818Z,4.03
2023-03-27T12:21:23.827Z,7.85
2023-03-27T12:23:05.194Z,3.35
2023-03-27T12:25:21.260Z,3.70
2023-03-27T12:27:55.278Z,3.55
2023-03-27T12:32:20.983Z,7.32
2023-03-27T12:45:51.096Z,3.17
2023-03-27T12:48:53.922Z,5.32
2023-03-27T12:56:58.915Z,5.60
2023-03-27T12:58:46.976Z,4.32
2023-03-27T13:00:44.863Z,4.50
2023-03-27T13:03:06.936Z,8.38
2023-03-27T13:05:24.194Z,2.67
2023-03-27T13:07:13.038Z,2.83
2023-03-27T13:12:29.756Z,3.42
2023-03-27T13:15:15.753Z,8.27
2023-03-27T13:28:35.338Z,2.65
2023-03-27T14:07:50.278Z,3.47
2023-03-27T14:20:50.458Z,2.60
2023-03-27T14:23:20.418Z,2.35
2023-03-27T14:25:16.536Z,3.42
2023-03-27T14:29:13.195Z,3.75
2023-03-27T14:31:15.465Z,5.22
2023-03-27T14:33:53.784Z,5.28
2023-03-27T14:38:00.417Z,3.08
2023-03-27T14:40:08.549Z,2.22
2023-03-27T14:42:16.452Z,2.10
2023-03-27T14:46:11.467Z,2.38
2023-03-27T14:48:08.128Z,3.72
2023-03-27T14:52:09.172Z,3.97
2023-03-27T14:53:57.591Z,3.45
2023-03-27T14:55:50.827Z,2.38
2023-03-27T14:57:57.930Z,2.83
2023-03-27T14:59:43.617Z,3.45
2023-03-27T15:01:23.737Z,1.77
2023-03-27T15:08:05.361Z,2.83
2023-03-27T15:10:34.951Z,4.55
2023-03-27T15:12:28.447Z,6.78
2023-03-27T15:14:11.700Z,6.47
2023-03-27T15:15:58.907Z,2.47
2023-03-27T15:17:42.557Z,4.75
2023-03-27T15:19:16.382Z,6.07
2023-03-27T15:20:45.181Z,3.30
2023-03-27T15:22:13.881Z,2.50
2023-03-27T15:23:50.872Z,3.38
2023-03-27T15:25:21.495Z,5.35
2023-03-27T15:26:43.815Z,3.60
2023-03-27T15:28:11.712Z,3.75
2023-03-27T15:29:44.948Z,2.30
2023-03-27T15:31:14.286Z,3.00
2023-03-27T15:32:42.737Z,2.60
2023-03-27T15:34:09.583Z,5.00
2023-03-27T15:35:36.908Z,4.18
2023-03-27T15:37:04.775Z,2.60
2023-03-27T15:38:42.538Z,3.28
2023-03-27T15:40:36.916Z,4.28
2023-03-27T15:42:06.733Z,9.15
2023-03-27T15:43:32.691Z,5.68
2023-03-27T15:45:06.135Z,2.53
2023-03-27T15:46:39.084Z,5.68
2023-03-27T15:48:04.233Z,5.70
2023-03-27T15:49:40.820Z,4.68
2023-03-27T15:51:09.310Z,2.65
2023-03-27T15:52:51.090Z,4.50
2023-03-27T15:54:54.262Z,6.28
2023-03-27T15:56:24.842Z,6.60
2023-03-27T15:57:50.334Z,3.33
2023-03-27T15:59:16.568Z,3.03
2023-03-27T16:00:49.036Z,4.10
2023-03-27T16:02:20.712Z,3.85
2023-03-27T16:03:45.627Z,4.28
2023-03-27T16:05:08.671Z,6.35
2023-03-27T16:06:37.759Z,6.32
2023-03-27T16:08:02.705Z,4.53
2023-03-27T16:09:37.337Z,6.80
2023-03-27T16:11:10.519Z,3.40
2023-03-27T16:12:36.502Z,6.50
2023-03-27T16:14:14.030Z,8.98
2023-03-27T16:15:56.172Z,4.30
2023-03-27T16:17:35.731Z,3.55
2023-03-27T16:19:01.258Z,5.82
2023-03-27T16:20:37.564Z,3.70
2023-03-27T16:22:00.614Z,11.68
2023-03-27T16:23:25.015Z,4.50
2023-03-27T16:24:46.801Z,5.60
2023-03-27T16:26:15.671Z,7.00
2023-03-27T16:27:40.813Z,6.60
2023-03-27T16:29:29.516Z,12.57
2023-03-27T16:31:15.326Z,7.40
2023-03-27T16:34:22.346Z,4.95
2023-03-27T16:35:50.787Z,6.10
2023-03-27T16:37:17.214Z,4.55
2023-03-27T16:38:40.907Z,4.90
2023-03-27T16:40:10.581Z,4.32
2023-03-27T16:41:39.423Z,10.38
2023-03-27T16:43:21.278Z,4.80
2023-03-27T16:44:48.759Z,8.52
2023-03-27T16:46:18.543Z,7.50
2023-03-27T16:47:53.699Z,5.93
2023-03-27T16:49:19.566Z,3.08
2023-03-27T16:50:42.505Z,7.32
2023-03-27T16:52:05.130Z,5.55
2023-03-27T16:53:30.668Z,5.13
2023-03-27T16:54:53.479Z,4.72
2023-03-27T16:56:20.911Z,6.53
2023-03-27T16:57:43.959Z,7.32
2023-03-27T16:59:09.137Z,8.52
2023-03-27T17:00:34.373Z,6.60
2023-03-27T17:01:57.129Z,6.00
2023-03-27T17:03:31.544Z,4.97
2023-03-27T17:05:05.289Z,4.78
2023-03-27T17:06:40.206Z,6.07
2023-03-27T17:08:13.408Z,5.55
2023-03-27T17:09:54.490Z,6.03
2023-03-27T17:12:36.865Z,5.13
2023-03-27T17:17:27.618Z,7.75
2023-03-27T17:19:17.628Z,4.53
2023-03-27T17:20:44.446Z,4.75
2023-03-27T17:22:09.649Z,6.18
2023-03-27T17:23:33.142Z,5.22
2023-03-27T17:24:57.273Z,5.95
2023-03-27T17:26:24.234Z,7.07
2023-03-27T17:27:49.322Z,6.65
2023-03-27T17:29:11.801Z,6.50
2023-03-27T17:30:39.734Z,8.90
2023-03-27T17:32:08.977Z,8.38
2023-03-27T17:33:34.941Z,8.35
2023-03-27T17:34:58.845Z,33.10
2023-03-27T17:36:39.723Z,14.82
2023-03-27T17:38:08.685Z,12.35
2023-03-27T17:39:31.497Z,11.35
2023-03-27T17:40:53.796Z,10.57
2023-03-27T17:42:15.932Z,11.02
2023-03-27T17:43:38.481Z,9.75
2023-03-27T17:45:03.698Z,10.25
2023-03-27T17:46:26.312Z,7.82
2023-03-27T17:47:48.769Z,9.85
2023-03-27T17:49:11.252Z,9.68
2023-03-27T17:50:36.217Z,9.65
2023-03-27T17:52:00.936Z,9.18
2023-03-27T17:53:23.349Z,8.35
2023-03-27T17:54:48.286Z,21.30
2023-03-27T17:56:11.160Z,18.13
2023-03-27T17:57:34.482Z,21.98
2023-03-27T17:58:58.598Z,20.27
2023-03-27T18:00:23.594Z,19.08
2023-03-27T18:01:48.575Z,13.48
2023-03-27T18:03:13.594Z,12.20
2023-03-27T18:04:38.993Z,11.05
2023-03-27T18:06:06.895Z,8.18
2023-03-27T18:07:38.480Z,15.80
2023-03-27T18:09:02.446Z,9.48
2023-03-27T18:10:24.565Z,10.63
2023-03-27T18:13:07.550Z,12.37
2023-03-27T18:14:30.090Z,15.90
2023-03-27T18:15:57.013Z,17.33
2023-03-27T18:17:21.344Z,17.27
2023-03-27T18:18:54.932Z,13.05
2023-03-27T18:20:18.653Z,15.38
2023-03-27T18:22:01.965Z,13.77
2023-03-27T18:23:25.534Z,13.77
2023-03-27T18:24:47.824Z,11.27
2023-03-27T18:26:12.160Z,18.48
2023-03-27T18:27:33.563Z,26.20
2023-03-27T18:28:55.608Z,18.13
2023-03-27T18:30:19.021Z,15.07
2023-03-27T18:31:45.889Z,15.57
2023-03-27T18:33:08.951Z,12.02
2023-03-27T18:34:39.694Z,11.80
2023-03-27T18:36:08.824Z,12.60
2023-03-27T18:37:35.644Z,11.77
2023-03-27T18:39:04.474Z,11.77
2023-03-27T18:40:35.971Z,12.73
2023-03-27T18:42:01.737Z,16.10
2023-03-27T18:43:24.814Z,12.40
2023-03-27T18:44:48.230Z,12.18
2023-03-27T18:46:17.172Z,8.18
2023-03-27T18:47:40.494Z,8.98
2023-03-27T18:49:13.636Z,9.23
2023-03-27T18:50:49.438Z,10.68
2023-03-27T18:52:12.832Z,10.18
2023-03-27T18:53:36.791Z,12.77
2023-03-27T18:55:04.077Z,10.13
2023-03-27T18:56:26.785Z,10.38
2023-03-27T18:57:48.956Z,8.38
2023-03-27T18:59:11.271Z,10.27
2023-03-27T19:00:49.274Z,8.93
2023-03-27T19:02:11.726Z,13.52
2023-03-27T19:03:35.518Z,11.18
2023-03-27T19:05:01.648Z,8.20
2023-03-27T19:06:26.736Z,6.55
2023-03-27T19:16:02.283Z,10.27
2023-03-27T19:30:46.367Z,9.80
2023-03-27T20:10:59.452Z,14.15
2023-03-27T20:12:27.740Z,13.65
2023-03-27T20:17:07.886Z,18.52
2023-03-27T20:18:59.161Z,18.52
2023-03-27T20:23:37.859Z,18.42
2023-03-27T20:25:00.910Z,14.02
2023-03-27T20:26:35.547Z,17.42
2023-03-27T20:28:11.956Z,16.17
2023-03-27T20:29:45.917Z,20.83
2023-03-27T20:31:31.063Z,18.40
2023-03-27T20:32:54.011Z,20.98
2023-03-27T20:34:20.181Z,17.83
2023-03-27T20:35:53.319Z,15.82
2023-03-27T20:37:19.893Z,20.27
2023-03-27T20:38:59.430Z,17.42
2023-03-27T20:40:28.368Z,15.13
2023-03-27T20:42:07.426Z,16.77
2023-03-27T20:43:37.700Z,18.27
2023-03-27T20:45:00.187Z,15.80
2023-03-27T20:46:39.824Z,16.77
2023-03-27T20:48:24.472Z,17.35
2023-03-27T20:50:08.424Z,20.65
2023-03-27T20:51:40.468Z,16.48
2023-03-27T20:53:20.006Z,14.65
2023-03-27T20:54:55.752Z,15.10
2023-03-27T20:57:24.309Z,17.13
2023-03-27T20:59:17.470Z,17.05
2023-03-27T21:00:50.292Z,18.98
2023-03-27T21:02:19.960Z,13.07
2023-03-27T21:03:46.569Z,15.80
2023-03-27T21:05:16.388Z,12.77
2023-03-27T21:06:52.446Z,16.60
2023-03-27T21:08:43.509Z,15.27
2023-03-27T21:10:34.934Z,13.23
2023-03-27T21:12:03.752Z,10.85
2023-03-27T21:13:35.625Z,13.48
2023-03-27T21:15:11.103Z,9.68
2023-03-27T21:17:15.557Z,12.32
2023-03-27T21:18:44.216Z,11.10
2023-03-27T21:20:26.857Z,11.77
2023-03-27T21:24:26.372Z,12.43
2023-03-27T21:26:41.921Z,11.13
2023-03-27T21:28:18.203Z,9.15
2023-03-27T21:30:11.615Z,13.02
2023-03-27T21:31:38.520Z,14.70
2023-03-27T21:33:59.863Z,12.18
2023-03-27T21:36:10.706Z,11.38
2023-03-27T21:37:34.009Z,9.23
2023-03-27T21:38:58.417Z,13.23
2023-03-27T21:40:35.218Z,10.57
2023-03-27T21:42:23.785Z,10.20
2023-03-27T21:44:16.636Z,11.23
2023-03-27T21:45:43.577Z,12.00
2023-03-27T21:47:37.304Z,10.13
2023-03-27T21:49:14.416Z,10.35
2023-03-27T21:50:37.354Z,14.45
2023-03-27T21:52:12.068Z,10.35
2023-03-27T21:54:14.253Z,11.60
2023-03-27T21:55:41.574Z,14.30
2023-03-27T21:57:07.487Z,11.05
2023-03-27T21:58:37.242Z,11.00
2023-03-27T22:00:12.298Z,13.90
2023-03-27T22:02:16.387Z,10.48
2023-03-27T22:03:45.376Z,10.27
2023-03-27T22:06:11.727Z,12.05
2023-03-27T22:07:27.568Z,12.32
2023-03-27T22:08:50.108Z,10.98
2023-03-27T22:10:36.967Z,10.30
2023-03-27T22:12:16.540Z,8.73
2023-03-27T22:14:12.654Z,10.07
2023-03-27T22:16:23.605Z,9.95
2023-03-27T22:19:02.533Z,9.48
2023-03-27T22:20:35.909Z,11.07
2023-03-27T22:22:35.093Z,9.65
2023-03-27T22:24:10.894Z,10.52
2023-03-27T22:25:36.004Z,10.73
2023-03-27T22:26:58.617Z,7.95
2023-03-27T22:28:29.523Z,11.13
2023-03-27T22:29:54.257Z,10.50
2023-03-27T22:31:19.420Z,10.25
2023-03-27T22:32:44.784Z,10.02
2023-03-27T22:34:07.709Z,11.52
2023-03-27T22:35:30.090Z,11.70
2023-03-27T22:36:53.700Z,10.65
2023-03-27T22:38:15.475Z,10.93
2023-03-27T22:39:37.795Z,11.30
2023-03-27T22:41:01.383Z,12.70
2023-03-27T22:42:25.175Z,9.07
2023-03-27T22:43:49.417Z,8.57
2023-03-27T22:45:26.259Z,10.10
2023-03-27T22:46:48.159Z,7.95
2023-03-27T22:48:14.679Z,9.27
2023-03-27T22:49:38.437Z,7.78
2023-03-27T22:51:03.661Z,10.88
2023-03-27T22:52:26.286Z,8.43
2023-03-27T23:41:31.728Z,9.20
2023-03-27T23:42:55.609Z,6.40
2023-03-27T23:44:20.618Z,4.78
2023-03-27T23:45:43.350Z,5.20
2023-03-27T23:47:06.488Z,6.70
2023-03-27T23:48:29.189Z,5.55
2023-03-27T23:49:51.433Z,4.10
2023-03-27T23:51:14.960Z,4.00
2023-03-27T23:52:37.293Z,7.88
2023-03-27T23:53:59.379Z,6.18
2023-03-27T23:55:20.865Z,5.85
2023-03-27T23:56:43.241Z,4.85
2023-03-27T23:58:06.886Z,5.43
2023-03-27T23:59:29.143Z,5.13
